sensor_id;sensor_type;location;lat;lon;timestamp;pressure;altitude;pressure_sealevel;temperature;humidity
6433;BME280;3249;42.690;23.260;2023-05-12T00:00:10;94467.19;;;8.48;100.00
6433;BME280;3249;42.690;23.260;2023-05-12T00:02:41;94468.94;;;8.41;100.00
6433;BME280;3249;42.690;23.260;2023-05-12T00:05:10;94468.56;;;8.44;100.00
6433;BME280;3249;42.690;23.260;2023-05-12T00:07:39;94464.00;;;8.40;100.00
6433;BME280;3249;42.690;23.260;2023-05-12T00:10:09;94464.00;;;8.46;100.00
6433;BME280;3249;42.690;23.260;2023-05-12T00:12:41;94469.16;;;8.33;100.00
6433;BME280;3249;42.690;23.260;2023-05-12T00:15:11;94467.53;;;8.32;100.00
6433;BME280;3249;42.690;23.260;2023-05-12T00:17:40;94465.97;;;8.38;100.00
6433;BME280;3249;42.690;23.260;2023-05-12T00:20:10;94455.72;;;8.44;100.00
6433;BME280;3249;42.690;23.260;2023-05-12T00:22:40;94468.91;;;8.61;100.00
6433;BME280;3249;42.690;23.260;2023-05-12T00:25:09;94469.13;;;8.46;100.00
6433;BME280;3249;42.690;23.260;2023-05-12T00:27:38;94470.13;;;8.45;100.00
6433;BME280;3249;42.690;23.260;2023-05-12T00:30:10;94461.25;;;8.54;100.00
6433;BME280;3249;42.690;23.260;2023-05-12T00:32:39;94469.72;;;8.29;100.00
6433;BME280;3249;42.690;23.260;2023-05-12T00:35:09;94432.84;;;8.23;100.00
6433;BME280;3249;42.690;23.260;2023-05-12T00:37:38;94470.09;;;8.19;100.00
6433;BME280;3249;42.690;23.260;2023-05-12T00:40:08;94472.28;;;8.29;100.00
6433;BME280;3249;42.690;23.260;2023-05-12T00:42:37;94476.22;;;8.31;100.00
6433;BME280;3249;42.690;23.260;2023-05-12T00:45:10;94473.03;;;8.16;100.00
6433;BME280;3249;42.690;23.260;2023-05-12T00:47:39;94471.50;;;8.22;100.00
6433;BME280;3249;42.690;23.260;2023-05-12T00:50:09;94468.50;;;8.12;100.00
6433;BME280;3249;42.690;23.260;2023-05-12T00:52:38;94459.22;;;7.98;100.00
6433;BME280;3249;42.690;23.260;2023-05-12T00:55:08;94484.47;;;8.07;100.00
6433;BME280;3249;42.690;23.260;2023-05-12T00:57:37;94481.13;;;8.13;100.00
6433;BME280;3249;42.690;23.260;2023-05-12T01:00:11;94481.53;;;8.10;100.00
6433;BME280;3249;42.690;23.260;2023-05-12T01:02:42;94483.50;;;8.15;100.00
6433;BME280;3249;42.690;23.260;2023-05-12T01:05:13;94478.13;;;7.90;100.00
6433;BME280;3249;42.690;23.260;2023-05-12T01:07:42;94478.13;;;7.90;100.00
6433;BME280;3249;42.690;23.260;2023-05-12T01:10:16;94472.63;;;7.87;100.00
6433;BME280;3249;42.690;23.260;2023-05-12T01:12:46;94481.88;;;7.81;100.00
6433;BME280;3249;42.690;23.260;2023-05-12T01:15:19;94481.25;;;7.66;100.00
6433;BME280;3249;42.690;23.260;2023-05-12T01:17:52;94486.94;;;7.62;100.00
6433;BME280;3249;42.690;23.260;2023-05-12T01:20:25;94479.78;;;7.44;100.00
6433;BME280;3249;42.690;23.260;2023-05-12T01:22:57;94474.66;;;7.44;100.00
6433;BME280;3249;42.690;23.260;2023-05-12T01:25:30;94479.59;;;7.52;100.00
6433;BME280;3249;42.690;23.260;2023-05-12T01:28:04;94477.84;;;7.53;100.00
6433;BME280;3249;42.690;23.260;2023-05-12T01:30:38;94479.94;;;7.36;100.00
6433;BME280;3249;42.690;23.260;2023-05-12T01:33:11;94491.78;;;7.37;100.00
6433;BME280;3249;42.690;23.260;2023-05-12T01:35:41;94477.75;;;7.27;100.00
6433;BME280;3249;42.690;23.260;2023-05-12T01:38:10;94480.03;;;7.56;100.00
6433;BME280;3249;42.690;23.260;2023-05-12T01:40:40;94485.78;;;7.17;100.00
6433;BME280;3249;42.690;23.260;2023-05-12T01:43:11;94481.44;;;7.18;100.00
6433;BME280;3249;42.690;23.260;2023-05-12T01:45:41;94485.78;;;7.17;100.00
6433;BME280;3249;42.690;23.260;2023-05-12T01:48:11;94481.19;;;7.00;100.00
6433;BME280;3249;42.690;23.260;2023-05-12T01:50:41;94484.88;;;6.97;100.00
6433;BME280;3249;42.690;23.260;2023-05-12T01:53:14;94477.44;;;7.02;100.00
6433;BME280;3249;42.690;23.260;2023-05-12T01:55:43;94479.75;;;6.97;100.00
6433;BME280;3249;42.690;23.260;2023-05-12T01:58:15;94476.69;;;6.74;100.00
6433;BME280;3249;42.690;23.260;2023-05-12T02:00:45;94469.00;;;6.68;100.00
6433;BME280;3249;42.690;23.260;2023-05-12T02:03:16;94474.28;;;6.66;100.00
6433;BME280;3249;42.690;23.260;2023-05-12T02:05:46;94476.50;;;6.76;100.00
6433;BME280;3249;42.690;23.260;2023-05-12T02:08:15;94472.53;;;6.73;100.00
6433;BME280;3249;42.690;23.260;2023-05-12T02:10:44;94474.34;;;6.79;100.00
6433;BME280;3249;42.690;23.260;2023-05-12T02:13:15;94474.09;;;6.68;100.00
6433;BME280;3249;42.690;23.260;2023-05-12T02:15:44;94463.44;;;6.64;100.00
6433;BME280;3249;42.690;23.260;2023-05-12T02:18:14;94476.41;;;6.90;100.00
6433;BME280;3249;42.690;23.260;2023-05-12T02:20:43;94465.56;;;6.88;100.00
6433;BME280;3249;42.690;23.260;2023-05-12T02:23:12;94460.81;;;6.85;100.00
6433;BME280;3249;42.690;23.260;2023-05-12T02:25:42;94470.44;;;6.83;100.00
6433;BME280;3249;42.690;23.260;2023-05-12T02:28:11;94462.75;;;6.77;100.00
6433;BME280;3249;42.690;23.260;2023-05-12T02:30:46;94459.13;;;6.37;100.00
6433;BME280;3249;42.690;23.260;2023-05-12T02:33:17;94470.81;;;6.46;100.00
6433;BME280;3249;42.690;23.260;2023-05-12T02:35:47;94471.22;;;6.50;100.00
6433;BME280;3249;42.690;23.260;2023-05-12T02:38:16;94458.03;;;6.25;100.00
6433;BME280;3249;42.690;23.260;2023-05-12T02:40:45;94465.22;;;6.36;100.00
6433;BME280;3249;42.690;23.260;2023-05-12T02:43:15;94431.31;;;6.00;100.00
6433;BME280;3249;42.690;23.260;2023-05-12T02:45:46;94464.31;;;6.23;100.00
6433;BME280;3249;42.690;23.260;2023-05-12T02:48:17;94453.91;;;5.97;100.00
6433;BME280;3249;42.690;23.260;2023-05-12T02:50:45;94462.47;;;6.10;100.00
6433;BME280;3249;42.690;23.260;2023-05-12T02:53:14;94456.19;;;5.92;100.00
6433;BME280;3249;42.690;23.260;2023-05-12T02:55:43;94475.91;;;5.98;100.00
6433;BME280;3249;42.690;23.260;2023-05-12T02:58:13;94471.59;;;5.98;100.00
6433;BME280;3249;42.690;23.260;2023-05-12T03:00:41;94478.88;;;6.01;100.00
6433;BME280;3249;42.690;23.260;2023-05-12T03:03:13;94474.75;;;6.00;100.00
6433;BME280;3249;42.690;23.260;2023-05-12T03:05:42;94479.75;;;6.08;100.00
6433;BME280;3249;42.690;23.260;2023-05-12T03:08:31;94476.94;;;6.03;100.00
6433;BME280;3249;42.690;23.260;2023-05-12T03:11:01;94483.09;;;6.09;100.00
6433;BME280;3249;42.690;23.260;2023-05-12T03:13:31;94480.09;;;6.26;100.00
6433;BME280;3249;42.690;23.260;2023-05-12T03:16:00;94481.34;;;6.37;100.00
6433;BME280;3249;42.690;23.260;2023-05-12T03:18:32;94489.03;;;6.16;100.00
6433;BME280;3249;42.690;23.260;2023-05-12T03:21:01;94485.56;;;6.23;100.00
6433;BME280;3249;42.690;23.260;2023-05-12T03:23:30;94492.34;;;6.10;100.00
6433;BME280;3249;42.690;23.260;2023-05-12T03:25:59;94495.47;;;6.12;100.00
6433;BME280;3249;42.690;23.260;2023-05-12T03:28:29;94484.53;;;6.18;100.00
6433;BME280;3249;42.690;23.260;2023-05-12T03:30:58;94499.47;;;6.42;100.00
6433;BME280;3249;42.690;23.260;2023-05-12T03:33:27;94496.78;;;6.50;100.00
6433;BME280;3249;42.690;23.260;2023-05-12T03:35:58;94504.28;;;6.51;100.00
6433;BME280;3249;42.690;23.260;2023-05-12T03:38:27;94489.16;;;6.56;100.00
6433;BME280;3249;42.690;23.260;2023-05-12T03:41:02;94509.47;;;6.64;100.00
6433;BME280;3249;42.690;23.260;2023-05-12T03:43:33;94508.31;;;6.67;100.00
6433;BME280;3249;42.690;23.260;2023-05-12T03:46:03;94512.66;;;6.66;100.00
6433;BME280;3249;42.690;23.260;2023-05-12T03:48:31;94509.06;;;6.61;100.00
6433;BME280;3249;42.690;23.260;2023-05-12T03:51:03;94515.22;;;6.66;100.00
6433;BME280;3249;42.690;23.260;2023-05-12T03:53:32;94514.41;;;6.66;100.00
6433;BME280;3249;42.690;23.260;2023-05-12T03:56:06;94520.19;;;6.74;100.00
6433;BME280;3249;42.690;23.260;2023-05-12T03:58:35;94514.66;;;6.77;100.00
6433;BME280;3249;42.690;23.260;2023-05-12T04:01:04;94512.50;;;6.74;100.00
6433;BME280;3249;42.690;23.260;2023-05-12T04:03:33;94525.13;;;6.76;100.00
6433;BME280;3249;42.690;23.260;2023-05-12T04:06:06;94522.78;;;6.81;100.00
6433;BME280;3249;42.690;23.260;2023-05-12T04:08:35;94528.88;;;6.80;100.00
6433;BME280;3249;42.690;23.260;2023-05-12T04:11:06;94527.75;;;6.89;100.00
6433;BME280;3249;42.690;23.260;2023-05-12T04:13:35;94521.09;;;6.94;100.00
6433;BME280;3249;42.690;23.260;2023-05-12T04:16:05;94530.31;;;6.89;100.00
6433;BME280;3249;42.690;23.260;2023-05-12T04:18:34;94530.13;;;6.90;100.00
6433;BME280;3249;42.690;23.260;2023-05-12T04:21:06;94521.16;;;7.07;100.00
6433;BME280;3249;42.690;23.260;2023-05-12T04:23:35;94494.81;;;6.79;100.00
6433;BME280;3249;42.690;23.260;2023-05-12T04:26:05;94527.78;;;6.95;100.00
6433;BME280;3249;42.690;23.260;2023-05-12T04:28:34;94539.81;;;7.01;100.00
6433;BME280;3249;42.690;23.260;2023-05-12T04:31:04;94528.66;;;7.09;100.00
6433;BME280;3249;42.690;23.260;2023-05-12T04:33:35;94542.59;;;7.00;100.00
6433;BME280;3249;42.690;23.260;2023-05-12T04:36:07;94528.84;;;7.07;100.00
6433;BME280;3249;42.690;23.260;2023-05-12T04:38:39;94517.16;;;6.92;100.00
6433;BME280;3249;42.690;23.260;2023-05-12T04:41:09;94525.94;;;6.83;100.00
6433;BME280;3249;42.690;23.260;2023-05-12T04:43:38;94529.38;;;6.96;100.00
6433;BME280;3249;42.690;23.260;2023-05-12T04:46:07;94524.88;;;6.98;100.00
6433;BME280;3249;42.690;23.260;2023-05-12T04:48:37;94529.88;;;7.13;100.00
6433;BME280;3249;42.690;23.260;2023-05-12T04:51:10;94514.78;;;6.90;100.00
6433;BME280;3249;42.690;23.260;2023-05-12T04:53:40;94534.16;;;7.06;100.00
6433;BME280;3249;42.690;23.260;2023-05-12T04:56:09;94527.50;;;7.11;100.00
6433;BME280;3249;42.690;23.260;2023-05-12T04:58:38;94527.03;;;7.01;100.00
6433;BME280;3249;42.690;23.260;2023-05-12T05:01:07;94528.88;;;7.14;100.00
6433;BME280;3249;42.690;23.260;2023-05-12T05:03:38;94528.34;;;7.25;100.00
6433;BME280;3249;42.690;23.260;2023-05-12T05:06:07;94534.63;;;7.16;100.00
6433;BME280;3249;42.690;23.260;2023-05-12T05:08:38;94535.47;;;7.29;100.00
6433;BME280;3249;42.690;23.260;2023-05-12T05:11:07;94509.72;;;7.03;100.00
6433;BME280;3249;42.690;23.260;2023-05-12T05:13:37;94519.59;;;7.06;100.00
6433;BME280;3249;42.690;23.260;2023-05-12T05:16:06;94530.31;;;7.23;100.00
6433;BME280;3249;42.690;23.260;2023-05-12T05:18:36;94535.53;;;7.42;100.00
6433;BME280;3249;42.690;23.260;2023-05-12T05:21:07;94538.47;;;7.39;100.00
6433;BME280;3249;42.690;23.260;2023-05-12T05:23:39;94543.00;;;7.37;100.00
6433;BME280;3249;42.690;23.260;2023-05-12T05:26:17;94532.75;;;7.37;100.00
6433;BME280;3249;42.690;23.260;2023-05-12T05:28:46;94541.41;;;7.36;100.00
6433;BME280;3249;42.690;23.260;2023-05-12T05:31:15;94549.03;;;7.23;100.00
6433;BME280;3249;42.690;23.260;2023-05-12T05:33:44;94545.63;;;7.50;100.00
6433;BME280;3249;42.690;23.260;2023-05-12T05:36:14;94553.69;;;7.54;100.00
6433;BME280;3249;42.690;23.260;2023-05-12T05:38:45;94550.75;;;7.57;100.00
6433;BME280;3249;42.690;23.260;2023-05-12T05:41:14;94556.13;;;7.68;100.00
6433;BME280;3249;42.690;23.260;2023-05-12T05:43:43;94543.88;;;7.57;100.00
6433;BME280;3249;42.690;23.260;2023-05-12T05:46:13;94533.72;;;7.36;100.00
6433;BME280;3249;42.690;23.260;2023-05-12T05:48:42;94554.16;;;7.70;100.00
6433;BME280;3249;42.690;23.260;2023-05-12T05:51:11;94530.66;;;7.60;100.00
6433;BME280;3249;42.690;23.260;2023-05-12T05:53:40;94545.47;;;7.65;100.00
6433;BME280;3249;42.690;23.260;2023-05-12T05:56:12;94526.91;;;7.56;100.00
6433;BME280;3249;42.690;23.260;2023-05-12T05:58:42;94559.31;;;7.77;100.00
6433;BME280;3249;42.690;23.260;2023-05-12T06:01:12;94559.47;;;7.62;100.00
6433;BME280;3249;42.690;23.260;2023-05-12T06:03:41;94556.19;;;7.81;100.00
6433;BME280;3249;42.690;23.260;2023-05-12T06:06:10;94556.53;;;7.65;100.00
6433;BME280;3249;42.690;23.260;2023-05-12T06:08:39;94558.41;;;7.50;100.00
6433;BME280;3249;42.690;23.260;2023-05-12T06:11:08;94557.44;;;7.51;100.00
6433;BME280;3249;42.690;23.260;2023-05-12T06:13:40;94562.59;;;7.64;100.00
6433;BME280;3249;42.690;23.260;2023-05-12T06:16:08;94560.16;;;7.43;100.00
6433;BME280;3249;42.690;23.260;2023-05-12T06:18:38;94569.53;;;7.64;100.00
6433;BME280;3249;42.690;23.260;2023-05-12T06:21:07;94568.75;;;7.70;100.00
6433;BME280;3249;42.690;23.260;2023-05-12T06:23:37;94573.50;;;7.73;100.00
6433;BME280;3249;42.690;23.260;2023-05-12T06:26:06;94571.91;;;7.65;100.00
6433;BME280;3249;42.690;23.260;2023-05-12T06:28:36;94575.31;;;7.85;100.00
6433;BME280;3249;42.690;23.260;2023-05-12T06:31:08;94566.41;;;7.75;100.00
6433;BME280;3249;42.690;23.260;2023-05-12T06:33:37;94561.34;;;7.88;100.00
6433;BME280;3249;42.690;23.260;2023-05-12T06:36:07;94573.78;;;8.04;100.00
6433;BME280;3249;42.690;23.260;2023-05-12T06:38:37;94580.19;;;8.21;100.00
6433;BME280;3249;42.690;23.260;2023-05-12T06:41:06;94586.25;;;8.13;100.00
6433;BME280;3249;42.690;23.260;2023-05-12T06:43:35;94592.25;;;8.33;100.00
6433;BME280;3249;42.690;23.260;2023-05-12T06:46:04;94584.94;;;8.37;100.00
6433;BME280;3249;42.690;23.260;2023-05-12T06:48:36;94582.94;;;8.32;100.00
6433;BME280;3249;42.690;23.260;2023-05-12T06:51:06;94593.47;;;8.63;100.00
6433;BME280;3249;42.690;23.260;2023-05-12T06:53:35;94550.63;;;8.57;100.00
6433;BME280;3249;42.690;23.260;2023-05-12T06:56:04;94583.59;;;8.86;100.00
6433;BME280;3249;42.690;23.260;2023-05-12T06:58:34;94585.59;;;8.91;100.00
6433;BME280;3249;42.690;23.260;2023-05-12T07:01:05;94582.22;;;8.90;100.00
6433;BME280;3249;42.690;23.260;2023-05-12T07:03:37;94578.44;;;8.99;100.00
6433;BME280;3249;42.690;23.260;2023-05-12T07:06:07;94589.13;;;8.83;100.00
6433;BME280;3249;42.690;23.260;2023-05-12T07:08:36;94588.72;;;8.99;100.00
6433;BME280;3249;42.690;23.260;2023-05-12T07:11:05;94590.13;;;8.76;100.00
6433;BME280;3249;42.690;23.260;2023-05-12T07:13:34;94588.72;;;8.93;100.00
6433;BME280;3249;42.690;23.260;2023-05-12T07:16:04;94591.09;;;9.07;100.00
6433;BME280;3249;42.690;23.260;2023-05-12T07:18:33;94590.28;;;9.26;100.00
6433;BME280;3249;42.690;23.260;2023-05-12T07:21:05;94596.44;;;8.99;100.00
6433;BME280;3249;42.690;23.260;2023-05-12T07:23:35;94591.88;;;9.08;100.00
6433;BME280;3249;42.690;23.260;2023-05-12T07:26:06;94596.66;;;9.04;100.00
6433;BME280;3249;42.690;23.260;2023-05-12T07:28:35;94597.41;;;9.05;100.00
6433;BME280;3249;42.690;23.260;2023-05-12T07:31:06;94598.00;;;9.20;100.00
6433;BME280;3249;42.690;23.260;2023-05-12T07:33:35;94575.28;;;9.17;100.00
6433;BME280;3249;42.690;23.260;2023-05-12T07:36:07;94588.25;;;9.48;100.00
6433;BME280;3249;42.690;23.260;2023-05-12T07:38:36;94601.50;;;9.45;100.00
6433;BME280;3249;42.690;23.260;2023-05-12T07:41:05;94600.31;;;9.54;100.00
6433;BME280;3249;42.690;23.260;2023-05-12T07:43:35;94606.63;;;9.51;100.00
6433;BME280;3249;42.690;23.260;2023-05-12T07:46:04;94597.34;;;9.50;100.00
6433;BME280;3249;42.690;23.260;2023-05-12T07:48:32;94597.66;;;9.80;100.00
6433;BME280;3249;42.690;23.260;2023-05-12T07:51:07;94603.66;;;9.68;100.00
6433;BME280;3249;42.690;23.260;2023-05-12T07:53:36;94598.84;;;9.84;100.00
6433;BME280;3249;42.690;23.260;2023-05-12T07:56:06;94601.78;;;9.94;100.00
6433;BME280;3249;42.690;23.260;2023-05-12T07:58:36;94602.06;;;9.60;100.00
6433;BME280;3249;42.690;23.260;2023-05-12T08:01:04;94600.53;;;10.10;100.00
6433;BME280;3249;42.690;23.260;2023-05-12T08:03:34;94600.66;;;10.28;100.00
6433;BME280;3249;42.690;23.260;2023-05-12T08:06:04;94597.56;;;10.13;100.00
6433;BME280;3249;42.690;23.260;2023-05-12T08:08:36;94591.34;;;10.33;100.00
6433;BME280;3249;42.690;23.260;2023-05-12T08:11:05;94596.09;;;10.61;100.00
6433;BME280;3249;42.690;23.260;2023-05-12T08:13:35;94591.75;;;10.61;100.00
6433;BME280;3249;42.690;23.260;2023-05-12T08:16:04;94598.78;;;10.72;100.00
6433;BME280;3249;42.690;23.260;2023-05-12T08:18:33;94597.63;;;10.68;100.00
6433;BME280;3249;42.690;23.260;2023-05-12T08:21:02;94603.94;;;10.72;100.00
6433;BME280;3249;42.690;23.260;2023-05-12T08:23:31;94600.25;;;10.62;100.00
6433;BME280;3249;42.690;23.260;2023-05-12T08:26:05;94602.41;;;10.65;100.00
6433;BME280;3249;42.690;23.260;2023-05-12T08:28:33;94608.31;;;10.72;100.00
6433;BME280;3249;42.690;23.260;2023-05-12T08:31:03;94601.25;;;10.92;100.00
6433;BME280;3249;42.690;23.260;2023-05-12T08:33:33;94613.22;;;11.04;100.00
6433;BME280;3249;42.690;23.260;2023-05-12T08:36:03;94609.84;;;10.79;100.00
6433;BME280;3249;42.690;23.260;2023-05-12T08:38:32;94614.78;;;10.81;100.00
6433;BME280;3249;42.690;23.260;2023-05-12T08:41:11;94611.91;;;10.64;100.00
6433;BME280;3249;42.690;23.260;2023-05-12T08:43:43;94610.38;;;11.12;100.00
6433;BME280;3249;42.690;23.260;2023-05-12T08:46:12;94610.19;;;10.89;100.00
6433;BME280;3249;42.690;23.260;2023-05-12T08:48:44;94606.00;;;11.13;100.00
6433;BME280;3249;42.690;23.260;2023-05-12T08:51:14;94616.91;;;11.15;100.00
6433;BME280;3249;42.690;23.260;2023-05-12T08:53:44;94611.91;;;11.20;100.00
6433;BME280;3249;42.690;23.260;2023-05-12T08:56:19;94603.31;;;11.26;100.00
6433;BME280;3249;42.690;23.260;2023-05-12T08:58:49;94614.94;;;11.35;100.00
6433;BME280;3249;42.690;23.260;2023-05-12T09:01:18;94616.53;;;11.60;100.00
6433;BME280;3249;42.690;23.260;2023-05-12T09:03:47;94614.09;;;11.41;100.00
6433;BME280;3249;42.690;23.260;2023-05-12T09:06:19;94607.97;;;11.78;100.00
6433;BME280;3249;42.690;23.260;2023-05-12T09:08:48;94590.44;;;11.86;100.00
6433;BME280;3249;42.690;23.260;2023-05-12T09:11:20;94609.25;;;12.23;100.00
6433;BME280;3249;42.690;23.260;2023-05-12T09:13:55;94604.56;;;12.31;100.00
6433;BME280;3249;42.690;23.260;2023-05-12T09:16:29;94596.34;;;12.23;100.00
6433;BME280;3249;42.690;23.260;2023-05-12T09:19:00;94596.66;;;12.15;100.00
6433;BME280;3249;42.690;23.260;2023-05-12T09:21:29;94595.44;;;12.47;100.00
6433;BME280;3249;42.690;23.260;2023-05-12T09:24:00;94596.41;;;12.34;100.00
6433;BME280;3249;42.690;23.260;2023-05-12T09:26:44;94595.88;;;12.44;100.00
6433;BME280;3249;42.690;23.260;2023-05-12T09:29:15;94600.59;;;12.17;100.00
6433;BME280;3249;42.690;23.260;2023-05-12T09:31:50;94597.75;;;11.89;100.00
6433;BME280;3249;42.690;23.260;2023-05-12T09:34:26;94591.22;;;12.05;100.00
6433;BME280;3249;42.690;23.260;2023-05-12T09:36:57;94586.69;;;12.48;100.00
6433;BME280;3249;42.690;23.260;2023-05-12T09:39:27;94586.16;;;12.57;100.00
6433;BME280;3249;42.690;23.260;2023-05-12T09:41:58;94593.81;;;12.64;100.00
6433;BME280;3249;42.690;23.260;2023-05-12T09:44:28;94602.47;;;12.99;100.00
6433;BME280;3249;42.690;23.260;2023-05-12T09:47:05;94604.28;;;13.21;100.00
6433;BME280;3249;42.690;23.260;2023-05-12T09:49:35;94606.78;;;13.39;98.01
6433;BME280;3249;42.690;23.260;2023-05-12T09:52:04;94599.44;;;13.48;99.42
6433;BME280;3249;42.690;23.260;2023-05-12T09:54:33;94600.56;;;13.52;95.91
6433;BME280;3249;42.690;23.260;2023-05-12T09:57:07;94602.59;;;13.73;95.72
6433;BME280;3249;42.690;23.260;2023-05-12T09:59:37;94589.41;;;13.74;92.37
6433;BME280;3249;42.690;23.260;2023-05-12T10:02:10;94597.78;;;13.65;90.63
6433;BME280;3249;42.690;23.260;2023-05-12T10:04:43;94593.16;;;13.44;90.54
6433;BME280;3249;42.690;23.260;2023-05-12T10:07:15;94592.38;;;13.32;93.43
6433;BME280;3249;42.690;23.260;2023-05-12T10:09:46;94589.22;;;13.53;92.98
6433;BME280;3249;42.690;23.260;2023-05-12T10:12:21;94598.13;;;13.57;91.47
6433;BME280;3249;42.690;23.260;2023-05-12T10:14:50;94586.41;;;13.43;91.78
6433;BME280;3249;42.690;23.260;2023-05-12T10:17:20;94573.47;;;13.66;92.46
6433;BME280;3249;42.690;23.260;2023-05-12T10:19:49;94586.50;;;13.71;87.76
6433;BME280;3249;42.690;23.260;2023-05-12T10:22:19;94595.38;;;13.75;86.08
6433;BME280;3249;42.690;23.260;2023-05-12T10:24:50;94589.75;;;13.66;83.22
6433;BME280;3249;42.690;23.260;2023-05-12T10:27:22;94591.47;;;13.49;85.18
6433;BME280;3249;42.690;23.260;2023-05-12T10:29:53;94595.50;;;13.45;85.64
6433;BME280;3249;42.690;23.260;2023-05-12T10:32:22;94591.59;;;13.31;86.44
6433;BME280;3249;42.690;23.260;2023-05-12T10:34:52;94575.16;;;13.03;91.06
6433;BME280;3249;42.690;23.260;2023-05-12T10:37:22;94574.69;;;13.52;88.44
6433;BME280;3249;42.690;23.260;2023-05-12T10:39:51;94573.66;;;13.88;89.27
6433;BME280;3249;42.690;23.260;2023-05-12T10:42:26;94575.56;;;14.32;80.20
6433;BME280;3249;42.690;23.260;2023-05-12T10:44:55;94577.50;;;14.25;80.49
6433;BME280;3249;42.690;23.260;2023-05-12T10:47:30;94577.56;;;14.41;82.45
6433;BME280;3249;42.690;23.260;2023-05-12T10:50:04;94580.47;;;14.45;76.17
6433;BME280;3249;42.690;23.260;2023-05-12T10:52:34;94585.84;;;14.55;77.05
6433;BME280;3249;42.690;23.260;2023-05-12T10:55:03;94573.34;;;14.24;76.77
6433;BME280;3249;42.690;23.260;2023-05-12T10:57:45;94576.69;;;14.36;77.12
6433;BME280;3249;42.690;23.260;2023-05-12T11:00:20;94583.50;;;14.42;79.47
6433;BME280;3249;42.690;23.260;2023-05-12T11:02:53;94584.81;;;14.28;78.87
6433;BME280;3249;42.690;23.260;2023-05-12T11:05:32;94584.59;;;14.18;75.95
6433;BME280;3249;42.690;23.260;2023-05-12T11:08:02;94577.38;;;14.20;75.43
6433;BME280;3249;42.690;23.260;2023-05-12T11:10:32;94576.81;;;14.29;79.59
6433;BME280;3249;42.690;23.260;2023-05-12T11:13:04;94580.91;;;14.53;78.93
6433;BME280;3249;42.690;23.260;2023-05-12T11:15:36;94580.00;;;14.48;75.45
6433;BME280;3249;42.690;23.260;2023-05-12T11:18:06;94586.69;;;14.44;75.94
6433;BME280;3249;42.690;23.260;2023-05-12T11:20:34;94574.56;;;14.33;77.80
6433;BME280;3249;42.690;23.260;2023-05-12T11:23:03;94578.81;;;14.39;77.49
6433;BME280;3249;42.690;23.260;2023-05-12T11:25:32;94578.47;;;14.35;77.63
6433;BME280;3249;42.690;23.260;2023-05-12T11:28:10;94557.22;;;14.33;78.07
6433;BME280;3249;42.690;23.260;2023-05-12T11:30:47;94591.34;;;14.58;76.47
6433;BME280;3249;42.690;23.260;2023-05-12T11:33:21;94574.00;;;14.31;74.08
6433;BME280;3249;42.690;23.260;2023-05-12T11:35:50;94583.47;;;14.25;75.16
6433;BME280;3249;42.690;23.260;2023-05-12T11:38:19;94593.13;;;14.30;78.57
6433;BME280;3249;42.690;23.260;2023-05-12T11:40:49;94589.28;;;14.32;75.56
6433;BME280;3249;42.690;23.260;2023-05-12T11:43:21;94584.59;;;14.29;77.39
6433;BME280;3249;42.690;23.260;2023-05-12T11:45:50;94582.63;;;14.36;76.11
6433;BME280;3249;42.690;23.260;2023-05-12T11:48:20;94579.72;;;14.33;74.74
6433;BME280;3249;42.690;23.260;2023-05-12T11:50:49;94571.91;;;14.44;75.96
6433;BME280;3249;42.690;23.260;2023-05-12T11:53:18;94554.88;;;14.48;75.00
6433;BME280;3249;42.690;23.260;2023-05-12T11:55:49;94577.69;;;14.79;74.04
6433;BME280;3249;42.690;23.260;2023-05-12T11:58:22;94581.00;;;14.91;73.26
6433;BME280;3249;42.690;23.260;2023-05-12T12:00:52;94570.25;;;14.99;71.69
6433;BME280;3249;42.690;23.260;2023-05-12T12:03:22;94581.50;;;15.05;69.23
6433;BME280;3249;42.690;23.260;2023-05-12T12:06:00;94579.13;;;15.03;70.76
6433;BME280;3249;42.690;23.260;2023-05-12T12:08:31;94551.06;;;14.51;68.30
6433;BME280;3249;42.690;23.260;2023-05-12T12:11:03;94577.34;;;14.59;68.30
6433;BME280;3249;42.690;23.260;2023-05-12T12:13:35;94575.28;;;14.45;71.87
6433;BME280;3249;42.690;23.260;2023-05-12T12:16:04;94577.66;;;14.46;71.09
6433;BME280;3249;42.690;23.260;2023-05-12T12:18:34;94583.78;;;14.57;72.70
6433;BME280;3249;42.690;23.260;2023-05-12T12:21:03;94591.25;;;14.70;72.45
6433;BME280;3249;42.690;23.260;2023-05-12T12:23:32;94586.16;;;14.58;69.33
6433;BME280;3249;42.690;23.260;2023-05-12T12:26:01;94582.25;;;14.44;71.23
6433;BME280;3249;42.690;23.260;2023-05-12T12:28:30;94577.72;;;14.35;73.06
6433;BME280;3249;42.690;23.260;2023-05-12T12:31:03;94576.25;;;14.27;75.69
6433;BME280;3249;42.690;23.260;2023-05-12T12:33:33;94592.38;;;14.29;71.97
6433;BME280;3249;42.690;23.260;2023-05-12T12:36:02;94581.22;;;14.29;68.58
6433;BME280;3249;42.690;23.260;2023-05-12T12:38:31;94559.00;;;13.93;69.67
6433;BME280;3249;42.690;23.260;2023-05-12T12:41:00;94573.97;;;13.91;69.53
6433;BME280;3249;42.690;23.260;2023-05-12T12:43:29;94559.59;;;13.72;76.93
6433;BME280;3249;42.690;23.260;2023-05-12T12:45:58;94571.09;;;13.64;75.05
6433;BME280;3249;42.690;23.260;2023-05-12T12:48:31;94558.03;;;13.71;75.98
6433;BME280;3249;42.690;23.260;2023-05-12T12:51:00;94575.66;;;13.85;68.78
6433;BME280;3249;42.690;23.260;2023-05-12T12:53:29;94576.19;;;13.99;70.74
6433;BME280;3249;42.690;23.260;2023-05-12T12:55:58;94570.44;;;13.69;71.11
6433;BME280;3249;42.690;23.260;2023-05-12T12:58:27;94573.22;;;13.79;71.23
6433;BME280;3249;42.690;23.260;2023-05-12T13:00:56;94571.16;;;13.93;71.42
6433;BME280;3249;42.690;23.260;2023-05-12T13:03:25;94556.44;;;13.93;68.18
6433;BME280;3249;42.690;23.260;2023-05-12T13:05:57;94569.31;;;14.05;69.67
6433;BME280;3249;42.690;23.260;2023-05-12T13:08:26;94544.78;;;14.07;68.36
6433;BME280;3249;42.690;23.260;2023-05-12T13:10:54;94567.94;;;14.25;69.03
6433;BME280;3249;42.690;23.260;2023-05-12T13:13:24;94558.47;;;14.31;63.53
6433;BME280;3249;42.690;23.260;2023-05-12T13:15:53;94558.47;;;14.19;62.58
6433;BME280;3249;42.690;23.260;2023-05-12T13:18:22;94546.72;;;14.00;62.92
6433;BME280;3249;42.690;23.260;2023-05-12T13:20:51;94546.72;;;14.00;62.58
6433;BME280;3249;42.690;23.260;2023-05-12T13:23:22;94544.81;;;13.96;65.07
6433;BME280;3249;42.690;23.260;2023-05-12T13:25:51;94535.34;;;14.01;68.00